createdAt,value
2022-11-29T00:00:31.336Z,13.20
2022-11-29T00:03:01.380Z,13.90
2022-11-29T00:05:32.088Z,12.93
2022-11-29T00:08:02.138Z,12.97
2022-11-29T00:10:32.726Z,12.97
2022-11-29T00:13:02.619Z,13.43
2022-11-29T00:15:39.027Z,12.60
2022-11-29T00:18:09.800Z,12.10
2022-11-29T00:20:42.489Z,11.70
2022-11-29T00:23:12.474Z,12.80
2022-11-29T00:25:42.952Z,11.43
2022-11-29T00:28:12.896Z,13.37
2022-11-29T00:30:46.097Z,13.67
2022-11-29T00:33:16.003Z,12.00
2022-11-29T00:35:46.331Z,12.80
2022-11-29T00:38:16.221Z,12.87
2022-11-29T00:40:46.764Z,13.63
2022-11-29T00:43:16.673Z,15.57
2022-11-29T00:45:50.032Z,14.77
2022-11-29T00:48:19.974Z,12.77
2022-11-29T00:50:50.409Z,11.50
2022-11-29T00:53:20.348Z,12.93
2022-11-29T00:55:51.848Z,13.33
2022-11-29T00:58:22.112Z,12.30
2022-11-29T01:00:56.352Z,13.33
2022-11-29T01:03:26.903Z,14.30
2022-11-29T01:06:04.316Z,12.13
2022-11-29T01:08:34.198Z,12.67
2022-11-29T01:11:06.721Z,12.33
2022-11-29T01:13:37.431Z,12.37
2022-11-29T01:16:11.305Z,14.17
2022-11-29T01:18:41.452Z,12.40
2022-11-29T01:21:15.034Z,14.00
2022-11-29T01:23:45.986Z,14.43
2022-11-29T01:26:18.355Z,13.13
2022-11-29T01:28:49.896Z,14.60
2022-11-29T01:31:25.149Z,13.93
2022-11-29T01:33:56.751Z,13.37
2022-11-29T01:36:28.236Z,15.17
2022-11-29T01:38:58.179Z,13.90
2022-11-29T01:41:30.577Z,16.47
2022-11-29T01:44:03.636Z,15.00
2022-11-29T01:46:38.741Z,17.40
2022-11-29T01:49:14.247Z,14.90
2022-11-29T01:51:56.183Z,14.77
2022-11-29T01:54:26.255Z,15.60
2022-11-29T01:56:57.106Z,18.47
2022-11-29T01:59:31.054Z,17.27
2022-11-29T02:02:10.046Z,20.87
2022-11-29T02:04:42.126Z,20.43
2022-11-29T02:07:13.464Z,17.33
2022-11-29T02:09:43.377Z,16.47
2022-11-29T02:12:25.267Z,37.03
2022-11-29T02:15:15.168Z,20.67
2022-11-29T02:18:02.941Z,23.60
2022-11-29T02:21:00.596Z,21.07
2022-11-29T02:23:54.188Z,28.07
2022-11-29T02:26:39.714Z,21.83
2022-11-29T02:29:41.272Z,21.33
2022-11-29T02:32:42.104Z,27.23
2022-11-29T02:35:31.552Z,40.97
2022-11-29T02:38:21.809Z,28.50
2022-11-29T02:41:06.641Z,23.77
2022-11-29T02:43:59.508Z,24.60
2022-11-29T02:46:51.950Z,30.63
2022-11-29T02:49:49.003Z,27.93
2022-11-29T02:52:28.307Z,51.13
2022-11-29T02:55:03.975Z,39.33
2022-11-29T02:57:40.459Z,34.60
2022-11-29T03:00:13.661Z,40.63
2022-11-29T03:02:52.299Z,65.17
2022-11-29T03:05:27.804Z,24.23
2022-11-29T03:08:13.469Z,37.93
2022-11-29T03:10:51.939Z,26.90
2022-11-29T03:13:31.330Z,23.77
2022-11-29T03:16:08.261Z,20.90
2022-11-29T03:18:51.115Z,18.07
2022-11-29T03:21:27.570Z,23.00
2022-11-29T03:24:05.458Z,25.77
2022-11-29T03:26:43.132Z,16.80
2022-11-29T03:29:17.653Z,18.20
2022-11-29T03:31:55.688Z,14.63
2022-11-29T03:34:34.363Z,23.90
2022-11-29T03:37:14.695Z,48.23
2022-11-29T03:39:54.147Z,42.30
2022-11-29T03:42:29.683Z,63.13
2022-11-29T03:45:07.541Z,61.33
2022-11-29T03:47:43.949Z,92.70
2022-11-29T03:50:19.556Z,92.07
2022-11-29T03:52:55.238Z,38.13
2022-11-29T03:55:36.470Z,35.30
2022-11-29T03:58:17.399Z,44.27
2022-11-29T04:01:11.704Z,105.07
2022-11-29T04:04:09.017Z,50.87
2022-11-29T04:06:58.443Z,73.80
2022-11-29T04:09:41.549Z,78.70
2022-11-29T04:12:50.506Z,133.57
2022-11-29T04:15:50.437Z,91.23
2022-11-29T04:18:59.539Z,114.67
2022-11-29T04:22:07.899Z,121.90
2022-11-29T04:25:06.169Z,103.40
2022-11-29T04:28:10.027Z,97.60
2022-11-29T04:30:45.977Z,101.37
2022-11-29T04:33:50.405Z,76.97
2022-11-29T04:36:50.252Z,95.67
2022-11-29T04:39:39.483Z,148.77
2022-11-29T04:42:27.754Z,112.93
2022-11-29T04:45:33.224Z,66.80
2022-11-29T04:48:18.630Z,93.93
2022-11-29T04:50:58.856Z,80.03
2022-11-29T04:53:57.066Z,58.50
2022-11-29T04:56:35.890Z,38.10
2022-11-29T04:59:15.180Z,35.80
2022-11-29T05:01:55.679Z,23.47
2022-11-29T05:04:33.129Z,22.23
2022-11-29T05:07:11.715Z,13.10
2022-11-29T05:09:52.907Z,17.07
2022-11-29T05:12:31.035Z,14.87
2022-11-29T05:15:27.307Z,17.87
2022-11-29T05:18:06.298Z,18.23
2022-11-29T05:20:45.974Z,21.90
2022-11-29T05:23:35.889Z,19.83
2022-11-29T05:26:11.901Z,15.53
2022-11-29T05:28:51.632Z,11.70
2022-11-29T05:31:54.244Z,14.57
2022-11-29T05:34:42.667Z,10.10
2022-11-29T05:37:25.952Z,12.43
2022-11-29T05:40:17.396Z,10.90
2022-11-29T05:42:59.551Z,13.10
2022-11-29T05:45:35.006Z,9.30
2022-11-29T05:48:10.506Z,12.60
2022-11-29T05:50:44.718Z,11.23
2022-11-29T05:53:24.261Z,14.60
2022-11-29T05:56:07.064Z,11.53
2022-11-29T05:58:47.312Z,13.60
2022-11-29T06:01:23.996Z,10.57
2022-11-29T06:04:01.388Z,9.20
2022-11-29T06:06:39.923Z,9.27
2022-11-29T06:09:19.437Z,16.10
2022-11-29T06:11:56.714Z,12.77
2022-11-29T06:14:55.569Z,16.50
2022-11-29T06:17:42.271Z,16.13
2022-11-29T06:20:43.679Z,15.03
2022-11-29T06:23:31.767Z,15.57
2022-11-29T06:26:16.879Z,15.20
2022-11-29T06:29:04.774Z,17.43
2022-11-29T06:31:40.593Z,16.43
2022-11-29T06:34:19.396Z,18.77
2022-11-29T06:36:53.968Z,20.33
2022-11-29T06:39:24.835Z,17.37
2022-11-29T06:41:54.852Z,19.97
2022-11-29T06:44:28.153Z,18.40
2022-11-29T06:47:08.643Z,17.43
2022-11-29T06:49:42.834Z,18.80
2022-11-29T06:52:23.197Z,18.17
2022-11-29T06:55:08.629Z,16.80
2022-11-29T06:57:57.780Z,19.23
2022-11-29T07:00:36.266Z,19.60
2022-11-29T07:03:34.143Z,22.33
2022-11-29T07:06:14.208Z,21.47
2022-11-29T07:08:45.257Z,21.63
2022-11-29T07:11:16.222Z,18.57
2022-11-29T07:13:47.140Z,19.30
2022-11-29T07:16:27.434Z,18.70
2022-11-29T07:19:06.074Z,20.20
2022-11-29T07:21:49.849Z,19.70
2022-11-29T07:24:35.330Z,20.00
2022-11-29T07:27:14.754Z,23.73
2022-11-29T07:30:00.702Z,18.83
2022-11-29T07:32:50.378Z,19.03
2022-11-29T07:35:31.222Z,21.30
2022-11-29T07:38:11.663Z,19.00
2022-11-29T07:40:51.774Z,19.07
2022-11-29T07:43:31.898Z,20.67
2022-11-29T07:46:03.253Z,17.90
2022-11-29T07:48:36.521Z,16.33
2022-11-29T07:51:06.742Z,19.63
2022-11-29T07:53:43.120Z,19.90
2022-11-29T07:56:14.873Z,19.40
2022-11-29T07:58:45.261Z,16.40
2022-11-29T08:01:15.731Z,15.93
2022-11-29T08:03:48.475Z,17.50
2022-11-29T08:06:18.697Z,16.20
2022-11-29T08:08:48.970Z,19.90
2022-11-29T08:11:18.891Z,19.40
2022-11-29T08:13:49.335Z,20.60
2022-11-29T08:16:20.397Z,23.77
2022-11-29T08:18:53.339Z,20.00
2022-11-29T08:21:23.324Z,20.57
2022-11-29T08:23:54.460Z,24.63
2022-11-29T08:26:29.839Z,20.70
2022-11-29T08:29:01.474Z,19.93
2022-11-29T08:31:31.380Z,20.77
2022-11-29T08:34:04.038Z,20.90
2022-11-29T08:36:34.036Z,25.00
2022-11-29T08:39:09.397Z,23.13
2022-11-29T08:41:39.905Z,22.93
2022-11-29T08:44:10.842Z,23.60
2022-11-29T08:46:53.353Z,21.23
2022-11-29T08:49:25.888Z,23.73
2022-11-29T08:52:16.099Z,24.53
2022-11-29T08:54:44.324Z,22.50
2022-11-29T08:57:39.132Z,20.90
2022-11-29T09:00:05.008Z,21.37
2022-11-29T09:02:35.271Z,22.57
2022-11-29T09:05:08.401Z,21.80
2022-11-29T09:07:38.351Z,24.07
2022-11-29T09:10:11.377Z,22.07
2022-11-29T09:12:41.640Z,22.20
2022-11-29T09:15:13.617Z,18.00
2022-11-29T09:17:43.485Z,19.80
2022-11-29T09:20:16.949Z,20.50
2022-11-29T09:22:46.815Z,16.03
2022-11-29T09:25:17.080Z,17.50
2022-11-29T09:27:46.956Z,18.70
2022-11-29T09:30:23.327Z,21.87
2022-11-29T09:32:53.614Z,19.00
2022-11-29T09:35:26.270Z,18.13
2022-11-29T09:37:56.530Z,18.63
2022-11-29T09:40:35.306Z,19.80
2022-11-29T09:43:13.993Z,18.13
2022-11-29T09:45:48.358Z,17.07
2022-11-29T09:48:44.878Z,15.10
2022-11-29T09:51:26.487Z,16.17
2022-11-29T09:54:08.384Z,15.73
2022-11-29T09:56:43.703Z,17.23
2022-11-29T09:59:17.779Z,16.43
2022-11-29T10:01:51.715Z,16.43
2022-11-29T10:04:25.533Z,18.03
2022-11-29T10:07:04.097Z,17.90
2022-11-29T10:09:40.282Z,19.93
2022-11-29T10:12:19.801Z,18.70
2022-11-29T10:14:55.210Z,18.07
2022-11-29T10:17:35.856Z,17.90
2022-11-29T10:20:13.580Z,15.40
2022-11-29T10:22:53.544Z,17.00
2022-11-29T10:25:28.280Z,15.50
2022-11-29T10:27:58.212Z,15.43
2022-11-29T10:30:28.873Z,16.37
2022-11-29T10:33:02.385Z,16.60
2022-11-29T10:35:32.660Z,15.90
2022-11-29T10:38:29.783Z,14.70
2022-11-29T10:41:02.298Z,15.17
2022-11-29T10:43:32.247Z,15.73
2022-11-29T10:46:02.850Z,14.40
2022-11-29T10:48:35.737Z,14.73
2022-11-29T10:51:06.288Z,14.70
2022-11-29T10:53:41.228Z,16.20
2022-11-29T10:56:19.156Z,14.07
2022-11-29T10:58:58.405Z,12.60
2022-11-29T11:01:30.011Z,15.93
2022-11-29T11:04:04.391Z,15.13
2022-11-29T11:06:48.363Z,16.20
2022-11-29T11:09:27.618Z,16.77
2022-11-29T11:12:00.639Z,14.97
2022-11-29T11:14:32.926Z,13.47
2022-11-29T11:17:18.969Z,13.17
2022-11-29T11:19:58.453Z,13.13
2022-11-29T11:22:29.805Z,12.80
2022-11-29T11:25:05.982Z,15.20
2022-11-29T11:27:40.065Z,13.43
2022-11-29T11:30:24.313Z,15.63
2022-11-29T11:33:09.786Z,15.10
2022-11-29T11:35:40.286Z,12.17
2022-11-29T11:38:18.614Z,15.93
2022-11-29T11:40:57.848Z,13.47
2022-11-29T11:43:28.142Z,13.17
2022-11-29T11:45:58.854Z,22.40
2022-11-29T11:48:29.221Z,16.77
2022-11-29T11:51:02.422Z,15.37
2022-11-29T11:53:35.913Z,19.03
2022-11-29T11:56:11.617Z,73.47
2022-11-29T11:58:48.064Z,75.40
2022-11-29T12:01:27.600Z,18.70
2022-11-29T12:04:05.231Z,19.80
2022-11-29T12:06:43.797Z,32.87
2022-11-29T12:09:40.626Z,24.90
2022-11-29T12:12:17.829Z,15.33
2022-11-29T12:14:56.789Z,31.93
2022-11-29T12:17:35.055Z,16.53
2022-11-29T12:20:25.781Z,18.20
2022-11-29T12:23:16.511Z,19.57
2022-11-29T12:25:51.431Z,17.73
2022-11-29T12:28:27.779Z,23.40
2022-11-29T12:31:05.123Z,20.30
2022-11-29T12:33:45.531Z,22.57
2022-11-29T12:36:28.854Z,23.50
2022-11-29T12:39:33.065Z,24.37
2022-11-29T12:42:12.334Z,28.00
2022-11-29T12:44:56.162Z,24.90
2022-11-29T12:47:37.543Z,25.10
2022-11-29T12:50:25.400Z,26.23
2022-11-29T12:53:06.764Z,24.77
2022-11-29T12:55:46.430Z,21.07
2022-11-29T12:58:25.137Z,21.20
2022-11-29T13:01:07.389Z,20.23
2022-11-29T13:03:45.543Z,24.33
2022-11-29T13:06:24.256Z,20.40
2022-11-29T13:09:17.048Z,18.30
2022-11-29T13:11:55.915Z,17.80
2022-11-29T13:14:46.154Z,21.03
2022-11-29T13:17:30.618Z,19.40
2022-11-29T13:20:05.156Z,18.03
2022-11-29T13:22:44.386Z,19.13
2022-11-29T13:25:19.984Z,18.07
2022-11-29T13:27:58.337Z,21.13
2022-11-29T13:30:28.905Z,20.30
2022-11-29T13:33:08.491Z,21.73
2022-11-29T13:35:43.189Z,23.07
2022-11-29T13:38:19.699Z,22.57
2022-11-29T13:40:57.581Z,21.20
2022-11-29T13:43:35.914Z,25.73
2022-11-29T13:46:18.681Z,22.57
2022-11-29T13:48:56.262Z,26.67
2022-11-29T13:51:33.408Z,26.50
2022-11-29T13:54:05.963Z,25.07
2022-11-29T13:56:43.593Z,21.83
2022-11-29T13:59:21.300Z,24.70
2022-11-29T14:01:58.733Z,24.67
2022-11-29T14:04:38.839Z,24.43
2022-11-29T14:07:16.027Z,24.87
2022-11-29T14:09:58.660Z,26.57
2022-11-29T14:12:43.063Z,21.93
2022-11-29T14:15:28.629Z,24.30
2022-11-29T14:18:00.011Z,24.10
2022-11-29T14:21:01.388Z,25.60
2022-11-29T14:23:40.565Z,23.97
2022-11-29T14:26:29.181Z,28.63
2022-11-29T14:29:01.818Z,24.63
2022-11-29T14:31:55.705Z,25.70
2022-11-29T14:34:49.391Z,22.17
2022-11-29T14:37:32.743Z,22.40
2022-11-29T14:40:06.553Z,24.87
2022-11-29T14:42:37.059Z,24.97
2022-11-29T14:45:25.994Z,23.87
2022-11-29T14:47:57.093Z,23.13
2022-11-29T14:50:38.731Z,22.50
2022-11-29T14:53:32.836Z,21.70
2022-11-29T14:56:33.242Z,23.17
2022-11-29T14:59:33.014Z,22.20
2022-11-29T15:02:07.434Z,21.67
2022-11-29T15:04:38.141Z,29.00
2022-11-29T15:07:10.251Z,20.83
2022-11-29T15:09:44.435Z,19.87
2022-11-29T15:12:20.291Z,21.70
2022-11-29T15:15:01.904Z,20.43
2022-11-29T15:17:39.492Z,21.83
2022-11-29T15:20:31.944Z,20.60
2022-11-29T15:23:06.724Z,20.13
2022-11-29T15:25:48.749Z,21.70
2022-11-29T15:28:25.380Z,19.37
2022-11-29T15:31:05.837Z,22.17
2022-11-29T15:33:37.366Z,24.00
2022-11-29T15:36:10.102Z,23.30
2022-11-29T15:38:49.016Z,20.37
2022-11-29T15:41:29.325Z,20.70
2022-11-29T15:44:01.772Z,22.27
2022-11-29T15:46:33.887Z,20.90
2022-11-29T15:49:18.676Z,19.43
2022-11-29T15:51:53.034Z,22.77
2022-11-29T15:54:29.820Z,23.03
2022-11-29T15:57:06.093Z,21.20
2022-11-29T15:59:39.377Z,23.03
2022-11-29T16:02:13.102Z,19.77
2022-11-29T16:04:47.024Z,19.40
2022-11-29T16:07:18.260Z,20.23
2022-11-29T16:09:54.083Z,18.93
2022-11-29T16:12:28.306Z,20.07
2022-11-29T16:14:59.933Z,19.97
2022-11-29T16:17:32.383Z,21.73
2022-11-29T16:20:25.826Z,21.97
2022-11-29T16:23:14.402Z,21.00
2022-11-29T16:25:54.784Z,20.03
2022-11-29T16:28:36.095Z,18.77
2022-11-29T16:31:06.528Z,20.70
2022-11-29T16:33:36.759Z,24.13
2022-11-29T16:36:08.736Z,20.63
2022-11-29T16:38:39.066Z,19.07
2022-11-29T16:41:14.075Z,19.63
2022-11-29T16:43:57.734Z,17.97
2022-11-29T16:46:36.643Z,19.03
2022-11-29T16:49:35.022Z,18.03
2022-11-29T16:52:07.333Z,21.43
2022-11-29T16:54:37.501Z,17.10
2022-11-29T16:57:09.386Z,16.03
2022-11-29T16:59:41.955Z,14.70
2022-11-29T17:02:14.235Z,16.60
2022-11-29T17:04:44.337Z,17.77
2022-11-29T17:07:19.237Z,17.10
2022-11-29T17:09:49.132Z,16.40
2022-11-29T17:12:20.084Z,16.10
2022-11-29T17:14:52.617Z,17.07
2022-11-29T17:17:23.168Z,15.80
2022-11-29T17:19:53.037Z,21.27
2022-11-29T17:22:24.037Z,17.80
2022-11-29T17:24:54.421Z,19.73
2022-11-29T17:27:25.059Z,18.13
2022-11-29T17:29:57.549Z,17.33
2022-11-29T17:32:28.049Z,18.57
2022-11-29T17:34:57.880Z,18.40
2022-11-29T17:37:27.754Z,18.93
2022-11-29T17:39:57.597Z,17.87
2022-11-29T17:42:27.696Z,17.27
2022-11-29T17:45:00.140Z,17.53
2022-11-29T17:47:30.003Z,17.13
2022-11-29T17:49:59.852Z,19.17
2022-11-29T17:52:30.786Z,16.33
2022-11-29T17:55:00.643Z,18.57
2022-11-29T17:57:30.872Z,15.90
2022-11-29T18:00:04.411Z,17.43
2022-11-29T18:02:36.281Z,18.43
2022-11-29T18:05:06.324Z,15.60
2022-11-29T18:07:57.285Z,16.20
2022-11-29T18:10:28.543Z,16.67
2022-11-29T18:12:59.876Z,17.53
2022-11-29T18:15:32.405Z,17.80
2022-11-29T18:18:02.978Z,15.33
2022-11-29T18:20:32.961Z,20.03
2022-11-29T18:23:07.918Z,15.70
2022-11-29T18:25:39.776Z,14.70
2022-11-29T18:28:11.412Z,15.60
2022-11-29T18:30:44.026Z,15.83
2022-11-29T18:33:14.369Z,19.27
2022-11-29T18:35:44.298Z,16.83
2022-11-29T18:38:16.335Z,18.00
2022-11-29T18:40:47.864Z,17.60
2022-11-29T18:43:19.813Z,20.13
2022-11-29T18:45:52.358Z,16.23
2022-11-29T18:48:22.304Z,19.80
2022-11-29T18:50:52.211Z,17.60
2022-11-29T18:53:22.403Z,16.37
2022-11-29T18:56:02.671Z,13.70
2022-11-29T18:58:32.933Z,16.63
2022-11-29T19:01:10.888Z,15.73
2022-11-29T19:03:42.565Z,19.50
2022-11-29T19:06:14.502Z,16.03
2022-11-29T19:08:45.900Z,15.90
2022-11-29T19:11:18.180Z,16.70
2022-11-29T19:13:50.465Z,18.27
2022-11-29T19:16:23.024Z,16.77
2022-11-29T19:18:55.114Z,18.10
2022-11-29T19:21:26.560Z,21.30
2022-11-29T19:23:59.007Z,15.57
2022-11-29T19:26:30.676Z,17.83
2022-11-29T19:29:02.880Z,17.50
2022-11-29T19:31:35.394Z,16.17
2022-11-29T19:34:06.274Z,17.87
2022-11-29T19:36:37.422Z,15.93
2022-11-29T19:39:08.215Z,18.23
2022-11-29T19:41:39.750Z,15.93
2022-11-29T19:44:11.157Z,15.10
2022-11-29T19:46:45.787Z,16.90
2022-11-29T19:49:16.272Z,16.23
2022-11-29T19:51:46.232Z,18.47
2022-11-29T19:54:16.897Z,15.33
2022-11-29T19:56:46.861Z,15.37
2022-11-29T19:59:19.086Z,15.57
2022-11-29T20:01:51.660Z,15.30
2022-11-29T20:04:22.458Z,16.67
2022-11-29T20:06:54.839Z,16.07
2022-11-29T20:09:26.708Z,17.33
2022-11-29T20:11:56.901Z,17.97
2022-11-29T20:14:27.752Z,15.87
2022-11-29T20:17:00.809Z,16.20
2022-11-29T20:19:30.894Z,18.63
2022-11-29T20:22:01.713Z,19.73
2022-11-29T20:24:38.226Z,18.90
2022-11-29T20:27:10.788Z,18.00
2022-11-29T20:29:40.738Z,17.50
2022-11-29T20:32:14.059Z,18.37
2022-11-29T20:34:44.850Z,19.07
2022-11-29T20:37:37.964Z,19.80
2022-11-29T20:40:13.555Z,19.50
2022-11-29T20:43:00.434Z,18.40
2022-11-29T20:45:31.291Z,15.67
2022-11-29T20:48:11.485Z,17.73
2022-11-29T20:50:42.047Z,17.60
2022-11-29T20:53:32.115Z,17.20
2022-11-29T20:56:02.570Z,16.80
2022-11-29T20:58:33.098Z,18.10
2022-11-29T21:01:03.525Z,18.00
2022-11-29T21:03:37.951Z,14.60
2022-11-29T21:06:09.622Z,14.13
2022-11-29T21:08:40.230Z,14.60
2022-11-29T21:11:12.241Z,15.90
2022-11-29T21:13:44.510Z,14.27
2022-11-29T21:16:16.470Z,14.57
2022-11-29T21:18:52.321Z,15.73
2022-11-29T21:21:29.243Z,16.00
2022-11-29T21:24:06.825Z,15.87
2022-11-29T21:26:42.141Z,17.60
2022-11-29T21:29:19.268Z,14.97
2022-11-29T21:31:51.473Z,15.77
2022-11-29T21:34:24.121Z,15.70
2022-11-29T21:37:01.171Z,14.70
2022-11-29T21:39:36.006Z,14.73
2022-11-29T21:42:06.231Z,16.87
2022-11-29T21:44:37.168Z,15.03
2022-11-29T21:47:07.348Z,16.90
2022-11-29T21:49:40.577Z,16.00
2022-11-29T21:52:10.620Z,18.30
2022-11-29T21:54:42.569Z,17.17
2022-11-29T21:57:12.541Z,18.27
2022-11-29T21:59:43.002Z,19.87
2022-11-29T22:02:13.113Z,18.43
2022-11-29T22:04:47.149Z,18.17
2022-11-29T22:07:17.254Z,21.33
2022-11-29T22:09:47.912Z,21.40
2022-11-29T22:12:33.686Z,25.30
2022-11-29T22:15:06.375Z,32.67
2022-11-29T22:17:36.786Z,28.03
2022-11-29T22:20:11.008Z,33.80
2022-11-29T22:22:41.691Z,35.90
2022-11-29T22:25:12.563Z,31.03
2022-11-29T22:27:42.725Z,58.97
2022-11-29T22:30:13.851Z,73.17
2022-11-29T22:32:44.423Z,48.63
2022-11-29T22:35:17.171Z,252.43
2022-11-29T22:37:47.678Z,242.63
2022-11-29T22:40:18.019Z,310.33
2022-11-29T22:42:48.529Z,399.90
2022-11-29T22:45:18.641Z,376.90
2022-11-29T22:47:48.753Z,504.47
2022-11-29T22:50:21.274Z,488.47
2022-11-29T22:52:51.224Z,447.07
2022-11-29T22:55:21.188Z,410.50
2022-11-29T22:57:51.329Z,360.30
2022-11-29T23:00:21.724Z,270.87
2022-11-29T23:02:52.766Z,308.73
2022-11-29T23:05:29.408Z,382.27
2022-11-29T23:08:02.151Z,464.73
2022-11-29T23:10:32.131Z,222.50
2022-11-29T23:13:03.688Z,325.93
2022-11-29T23:15:33.861Z,323.40
2022-11-29T23:18:04.473Z,435.40
2022-11-29T23:20:39.905Z,332.33
2022-11-29T23:23:10.995Z,369.47
2022-11-29T23:25:48.274Z,350.73
2022-11-29T23:28:18.853Z,334.27
2022-11-29T23:30:48.802Z,240.87
2022-11-29T23:33:19.707Z,198.53
2022-11-29T23:35:52.849Z,247.17
2022-11-29T23:38:23.140Z,170.53
2022-11-29T23:40:53.163Z,179.57
2022-11-29T23:43:23.494Z,242.80
2022-11-29T23:45:53.836Z,161.80
2022-11-29T23:48:24.212Z,337.30
2022-11-29T23:50:57.290Z,374.60
2022-11-29T23:53:28.403Z,220.17
2022-11-29T23:56:02.709Z,353.83
2022-11-29T23:58:34.205Z,335.43
